Crowley, Colorado
Current Conditions -  °F | °C
As of 1:53 AM on Monday 24 Nov 2014 (Local Time) from KLHX Reporting Station
Clear Clear  
Wind Chill: 16°   Ceiling: Unl
Heat Index: 27°   Visibility: 10mi
Dew Point: 22°   Wind: 13mph
Humidity: 81%   Direction: 260°W
Pressure: 29.91"   Gusts: NA
Location:  38.19°N, 103.86°W
Report Text: KLHX 240853Z AUTO 26011KT 10SM CLR M03/M06 A2991 RMK AO2 SLP130 T10281056 55004 $
Loading
Personal Weather Stations






























Interactive Weather Map New forecast layout! Learn more

10-Day Weather Forecast

Advertisements
Track Severe Weather on mobile